ADDS METAR Data INFO
IDs: Format: Raw Decoded Include TAF

Data at: 0250 UTC 21 Jan 2018

KJKJ 210235Z AUTO 20003KT 10SM CLR M01/M03 A2992 RMK AO2
KJKJ 210215Z AUTO 22004KT 10SM CLR M01/M02 A2992 RMK AO2
KJKJ 210155Z AUTO 20003KT 10SM CLR 00/M02 A2992 RMK AO2
KJKJ 210135Z AUTO 20004KT 10SM CLR 00/M02 A2992 RMK AO2
KJKJ 210115Z AUTO 21003KT 10SM CLR 01/M02 A2992 RMK AO2
KJKJ 210055Z AUTO 22003KT 10SM CLR 01/M02 A2991 RMK AO2
KJKJ 210035Z AUTO 00000KT 10SM CLR 01/M02 A2991 RMK AO2
KJKJ 210015Z AUTO 00000KT 10SM CLR 01/M01 A2990 RMK AO2
KJKJ 202355Z AUTO 26003KT 10SM CLR 01/M01 A2991 RMK AO2
KJKJ 202335Z AUTO 25004KT 10SM CLR 02/M01 A2990 RMK AO2
KJKJ 202315Z AUTO 23005KT 10SM CLR 02/M01 A2990 RMK AO2
KJKJ 202255Z AUTO 22003KT 10SM CLR 02/M01 A2988 RMK AO2
KJKJ 202235Z AUTO 00000KT 10SM CLR 03/M01 A2988 RMK AO2
KJKJ 202215Z AUTO 23003KT 10SM CLR 03/M01 A2988 RMK AO2
KJKJ 202155Z AUTO 23003KT 10SM CLR 03/M01 A2988 RMK AO2
KJKJ 202135Z AUTO 25005KT 10SM CLR 03/M01 A2987 RMK AO2
KJKJ 202115Z AUTO 26005KT 10SM CLR 03/M01 A2987 RMK AO2
KJKJ 202056Z AUTO 28006KT 10SM CLR 03/M01 A2986 RMK AO2
KJKJ 202035Z AUTO 28005KT 10SM CLR 03/M01 A2985 RMK AO2
KJKJ 202015Z AUTO 26005KT 10SM CLR 04/M01 A2985 RMK AO2
KJKJ 201956Z AUTO 29008KT 10SM CLR 04/M01 A2985 RMK AO2
KJKJ 201935Z AUTO 28006KT 10SM CLR 03/M01 A2984 RMK AO2
KJKJ 201915Z AUTO 28007KT 10SM CLR 02/M01 A2984 RMK AO2
KJKJ 201855Z AUTO 25005KT 10SM CLR 02/M01 A2985 RMK AO2
KJKJ 201835Z AUTO 25005KT 10SM CLR 02/M01 A2985 RMK AO2
KJKJ 201815Z AUTO 24004KT 10SM CLR 01/M02 A2985 RMK AO2
KJKJ 201755Z AUTO 24004KT 10SM CLR 01/M02 A2986 RMK AO2
KJKJ 201735Z AUTO 23005KT 10SM CLR 01/M02 A2986 RMK AO2
KJKJ 201715Z AUTO 22005KT 10SM CLR 00/M02 A2986 RMK AO2
KJKJ 201655Z AUTO 23004KT 10SM CLR M01/M03 A2986 RMK AO2
KJKJ 201635Z AUTO 22005KT 10SM CLR M01/M03 A2986 RMK AO2
KJKJ 201615Z AUTO 23004KT 10SM CLR M02/M03 A2985 RMK AO2
KJKJ 201555Z AUTO 21005KT 10SM CLR M03/M04 A2984 RMK AO2
KJKJ 201535Z AUTO 21005KT 10SM CLR M03/M04 A2985 RMK AO2
KJKJ 201515Z AUTO 21004KT 10SM CLR M04/M05 A2984 RMK AO2
KJKJ 201455Z AUTO 21006KT 10SM CLR M04/M06 A2984 RMK AO2
KJKJ 201435Z AUTO 21006KT 10SM CLR M04/M06 A2983 RMK AO2
KJKJ 201415Z AUTO 19005KT 10SM CLR M04/M06 A2982 RMK AO2
KJKJ 201355Z AUTO 19005KT 10SM CLR M04/M06 A2981 RMK AO2
KJKJ 201335Z AUTO 18004KT 10SM CLR M04/M06 A2980 RMK AO2
KJKJ 201315Z AUTO 17006KT 10SM CLR M05/M06 A2980 RMK AO2
KJKJ 201255Z AUTO 17007KT 10SM CLR M05/M06 A2979 RMK AO2
KJKJ 201235Z AUTO 20005KT 10SM CLR M05/M06 A2980 RMK AO2
KJKJ 201215Z AUTO 16005KT 10SM CLR M06/M07 A2979 RMK AO2
KJKJ 201155Z AUTO 17005KT 10SM SCT100 M06/M07 A2978 RMK AO2
KJKJ 201135Z AUTO 15006KT 10SM SCT110 M06/M07 A2977 RMK AO2
KJKJ 201115Z AUTO 14006KT 10SM BKN110 M06/M07 A2977 RMK AO2
KJKJ 201055Z AUTO 20005KT 10SM SCT110 M05/M06 A2977 RMK AO2
KJKJ 201035Z AUTO 18005KT 10SM CLR M05/M07 A2977 RMK AO2
KJKJ 201015Z AUTO 19004KT 10SM CLR M04/M05 A2976 RMK AO2
KJKJ 200955Z AUTO 19003KT 10SM CLR M04/M06 A2976 RMK AO2
KJKJ 200935Z AUTO 22005KT 10SM SCT110 M05/M06 A2975 RMK AO2
KJKJ 200915Z AUTO 20006KT 10SM SCT110 M05/M06 A2975 RMK AO2
KJKJ 200855Z AUTO 20005KT 10SM CLR M07/M07 A2975 RMK AO2
KJKJ 200835Z AUTO 17005KT 10SM CLR M06/M07 A2974 RMK AO2
KJKJ 200815Z AUTO 18003KT 10SM CLR M06/M07 A2974 RMK AO2
KJKJ 200755Z AUTO 00000KT 10SM CLR M07/M07 A2973 RMK AO2
KJKJ 200735Z AUTO 00000KT 10SM CLR M04/M05 A2973 RMK AO2
KJKJ 200716Z AUTO 00000KT 10SM CLR M04/M05 A2973 RMK AO2
KJKJ 200655Z AUTO 00000KT 10SM CLR M04/M05 A2973 RMK AO2
KJKJ 200635Z AUTO 20003KT 10SM CLR M03/M04 A2972 RMK AO2
KJKJ 200615Z AUTO 19005KT 10SM CLR M03/M04 A2972 RMK AO2
KJKJ 200555Z AUTO 17003KT 10SM CLR M04/M06 A2971 RMK AO2
KJKJ 200536Z AUTO 00000KT 10SM CLR M03/M04 A2971 RMK AO2
KJKJ 200515Z AUTO 00000KT 10SM CLR M02/M04 A2971 RMK AO2
KJKJ 200455Z AUTO 00000KT 10SM CLR M01/M03 A2971 RMK AO2
KJKJ 200435Z AUTO 27006KT 10SM CLR M01/M03 A2970 RMK AO2
KJKJ 200415Z AUTO 28007KT 10SM CLR 00/M03 A2969 RMK AO2
KJKJ 200355Z AUTO 28008KT 10SM CLR 00/M03 A2969 RMK AO2
KJKJ 200335Z AUTO 28008KT 10SM CLR M01/M03 A2967 RMK AO2
KJKJ 200315Z AUTO 28008KT 10SM CLR M01/M03 A2966 RMK AO2
KJKJ 200255Z AUTO 26006KT 10SM CLR M01/M03 A2966 RMK AO2
KJKJ 200235Z AUTO 26006KT 10SM CLR M01/M03 A2966 RMK AO2
KJKJ 200215Z AUTO 26004KT 10SM CLR M01/M02 A2965 RMK AO2
KJKJ 200155Z AUTO 25004KT 10SM CLR 01/M02 A2964 RMK AO2
KJKJ 200135Z AUTO 24004KT 10SM CLR 01/M02 A2962 RMK AO2
KJKJ 200115Z AUTO 23004KT 10SM CLR 01/M02 A2962 RMK AO2
KJKJ 200055Z AUTO 25006KT 10SM CLR 02/M01 A2961 RMK AO2
KJKJ 200035Z AUTO 25005KT 10SM CLR 02/M01 A2961 RMK AO2
KJKJ 200015Z AUTO 25004KT 10SM CLR 01/M01 A2960 RMK AO2
KJKJ 192355Z AUTO 26006KT 10SM CLR 01/M01 A2960 RMK AO2
KJKJ 192335Z AUTO 28007KT 10SM CLR 02/M01 A2959 RMK AO2
KJKJ 192315Z AUTO 29008KT 10SM CLR 02/M01 A2959 RMK AO2
KJKJ 192255Z AUTO 29007KT 10SM CLR 02/M01 A2957 RMK AO2
KJKJ 192235Z AUTO 28007KT 10SM CLR 03/M01 A2956 RMK AO2
KJKJ 192215Z AUTO 30007KT 10SM CLR 03/M01 A2956 RMK AO2
KJKJ 192155Z AUTO 29008KT 10SM CLR 03/M01 A2954 RMK AO2
KJKJ 192135Z AUTO 30008KT 10SM BKN090 03/M01 A2955 RMK AO2
KJKJ 192115Z AUTO 30009KT 10SM BKN090 04/M01 A2954 RMK AO2
KJKJ 192055Z AUTO 30010G14KT 10SM SCT090 04/00 A2952 RMK AO2
KJKJ 192035Z AUTO 30007KT 10SM CLR 04/M01 A2952 RMK AO2
KJKJ 192015Z AUTO 30006KT 10SM CLR 05/00 A2952 RMK AO2
KJKJ 191955Z AUTO 00000KT 10SM CLR 03/00 A2952 RMK AO2
KJKJ 191935Z AUTO 23003KT CLR 02/M01 A2951 RMK AO2 PWINO
KJKJ 191915Z AUTO 20003KT CLR 02/M01 A2951 RMK AO2 PWINO
KJKJ 191855Z AUTO 20005KT CLR 02/M01 A2950 RMK AO2 PWINO
KJKJ 191835Z AUTO 19005KT CLR 02/M02 A2950 RMK AO2 PWINO
KJKJ 191815Z AUTO 18005KT CLR 01/M02 A2950 RMK AO2 PWINO
KJKJ 191755Z AUTO 18004KT CLR 01/M02 A2951 RMK AO2 PWINO
KJKJ 191735Z AUTO 20004KT CLR 00/M03 A2952 RMK AO2 PWINO
KJKJ 191715Z AUTO 00000KT CLR 00/M03 A2951 RMK AO2 PWINO
KJKJ 191655Z AUTO 21003KT 10SM CLR M01/M03 A2951 RMK AO2
KJKJ 191635Z AUTO 19003KT 10SM CLR M01/M04 A2952 RMK AO2
KJKJ 191615Z AUTO 21003KT 10SM CLR M02/M04 A2952 RMK AO2
KJKJ 191555Z AUTO 21005KT 10SM CLR M03/M05 A2952 RMK AO2
KJKJ 191535Z AUTO 20003KT 10SM CLR M03/M05 A2951 RMK AO2
KJKJ 191515Z AUTO 00000KT 10SM CLR M04/M06 A2951 RMK AO2
KJKJ 191455Z AUTO 18003KT 10SM CLR M03/M05 A2950 RMK AO2